NCAR-RAP Real-Time Weather Data

Output produced by METARs form (13 November 2019  16:58 UTC)
found at http://weather.rap.ucar.edu/surface/
 
Conditions at: KIND observed 13 November 2019  16:54 UTC
Temperature: -5.6°C (22°F)
Dewpoint: -10.6°C (13°F) [RH = 68%]
Pressure (altimeter): 30.33 inches Hg (1027.2 mb)
[Sea-level pressure: 1028.5 mb]
Winds: from the SSW (200 degrees) at 12 MPH (10 knots; 5.2 m/s)
Visibility: 10 or more miles (16+ km)
Ceiling: 15000 feet AGL
Clouds: broken clouds at 15000 feet AGL
broken clouds at 25000 feet AGL
Present Weather: no significant weather observed at this time
KIND 131654Z 20010KT 10SM BKN150 BKN250 M06/M11 A3033 RMK AO2 SLP285 T10561106